sensor_id;sensor_type;location;lat;lon;timestamp;pressure;altitude;pressure_sealevel;temperature;humidity
24558;BME280;12726;49.148;8.582;2023-06-14T00:01:27;99831.72;;;16.96;49.03
24558;BME280;12726;49.148;8.582;2023-06-14T00:04:12;99836.03;;;16.92;49.04
24558;BME280;12726;49.148;8.582;2023-06-14T00:07:00;99831.69;;;16.91;49.14
24558;BME280;12726;49.148;8.582;2023-06-14T00:09:47;99830.34;;;16.89;49.28
24558;BME280;12726;49.148;8.582;2023-06-14T00:12:32;99831.69;;;16.86;49.24
24558;BME280;12726;49.148;8.582;2023-06-14T00:15:18;99839.00;;;16.80;49.25
24558;BME280;12726;49.148;8.582;2023-06-14T00:18:04;99828.69;;;16.82;49.11
24558;BME280;12726;49.148;8.582;2023-06-14T00:20:50;99833.84;;;16.84;49.18
24558;BME280;12726;49.148;8.582;2023-06-14T00:23:35;99830.88;;;16.86;49.01
24558;BME280;12726;49.148;8.582;2023-06-14T00:26:22;99837.38;;;16.79;49.10
24558;BME280;12726;49.148;8.582;2023-06-14T00:29:07;99828.13;;;16.75;49.39
24558;BME280;12726;49.148;8.582;2023-06-14T00:31:53;99831.66;;;16.76;49.30
24558;BME280;12726;49.148;8.582;2023-06-14T00:34:38;99835.97;;;16.72;49.63
24558;BME280;12726;49.148;8.582;2023-06-14T00:37:23;99817.22;;;16.65;49.80
24558;BME280;12726;49.148;8.582;2023-06-14T00:40:09;99817.19;;;16.60;49.89
24558;BME280;12726;49.148;8.582;2023-06-14T00:42:56;99829.63;;;16.56;50.00
24558;BME280;12726;49.148;8.582;2023-06-14T00:45:42;99832.63;;;16.55;50.39
24558;BME280;12726;49.148;8.582;2023-06-14T00:48:28;99833.69;;;16.49;50.06
24558;BME280;12726;49.148;8.582;2023-06-14T00:51:14;99831.50;;;16.45;50.39
24558;BME280;12726;49.148;8.582;2023-06-14T00:53:59;99831.50;;;16.45;50.40
24558;BME280;12726;49.148;8.582;2023-06-14T00:56:45;99828.78;;;16.45;50.50
24558;BME280;12726;49.148;8.582;2023-06-14T00:59:32;99824.44;;;16.44;50.55
24558;BME280;12726;49.148;8.582;2023-06-14T01:02:17;99826.06;;;16.40;50.37
24558;BME280;12726;49.148;8.582;2023-06-14T01:05:03;99832.53;;;16.34;50.91
24558;BME280;12726;49.148;8.582;2023-06-14T01:08:02;99834.66;;;16.27;50.83
24558;BME280;12726;49.148;8.582;2023-06-14T01:10:54;99827.88;;;16.25;51.16
24558;BME280;12726;49.148;8.582;2023-06-14T01:13:44;99830.25;;;16.16;51.34
24558;BME280;12726;49.148;8.582;2023-06-14T01:16:32;99843.56;;;16.13;51.51
24558;BME280;12726;49.148;8.582;2023-06-14T01:19:20;99833.69;;;16.01;52.12
24558;BME280;12726;49.148;8.582;2023-06-14T01:22:09;99841.56;;;15.98;52.32
24558;BME280;12726;49.148;8.582;2023-06-14T01:24:56;99839.09;;;15.91;52.57
24558;BME280;12726;49.148;8.582;2023-06-14T01:27:41;99836.84;;;15.83;52.61
24558;BME280;12726;49.148;8.582;2023-06-14T01:30:27;99835.69;;;15.74;52.83
24558;BME280;12726;49.148;8.582;2023-06-14T01:33:15;99844.84;;;15.63;53.48
24558;BME280;12726;49.148;8.582;2023-06-14T01:36:02;99852.88;;;15.53;54.29
24558;BME280;12726;49.148;8.582;2023-06-14T01:38:48;99843.78;;;15.42;54.50
24558;BME280;12726;49.148;8.582;2023-06-14T01:41:36;99844.00;;;15.36;54.60
24558;BME280;12726;49.148;8.582;2023-06-14T01:44:23;99847.50;;;15.31;54.73
24558;BME280;12726;49.148;8.582;2023-06-14T01:47:09;99846.94;;;15.29;54.77
24558;BME280;12726;49.148;8.582;2023-06-14T01:49:54;99845.56;;;15.26;54.83
24558;BME280;12726;49.148;8.582;2023-06-14T01:52:39;99853.13;;;15.24;54.95
24558;BME280;12726;49.148;8.582;2023-06-14T01:55:24;99856.91;;;15.23;55.39
24558;BME280;12726;49.148;8.582;2023-06-14T01:58:11;99849.03;;;15.22;55.21
24558;BME280;12726;49.148;8.582;2023-06-14T02:00:57;99849.56;;;15.19;55.50
24558;BME280;12726;49.148;8.582;2023-06-14T02:03:44;99850.84;;;15.11;55.52
24558;BME280;12726;49.148;8.582;2023-06-14T02:06:30;99849.97;;;15.06;56.00
24558;BME280;12726;49.148;8.582;2023-06-14T02:09:16;99851.28;;;15.03;56.17
24558;BME280;12726;49.148;8.582;2023-06-14T02:12:01;99841.97;;;14.94;56.21
24558;BME280;12726;49.148;8.582;2023-06-14T02:14:48;99855.75;;;14.93;56.68
24558;BME280;12726;49.148;8.582;2023-06-14T02:17:33;99847.59;;;14.87;57.10
24558;BME280;12726;49.148;8.582;2023-06-14T02:20:18;99856.97;;;14.80;57.34
24558;BME280;12726;49.148;8.582;2023-06-14T02:23:03;99849.91;;;14.79;57.64
24558;BME280;12726;49.148;8.582;2023-06-14T02:25:49;99854.22;;;14.75;57.20
24558;BME280;12726;49.148;8.582;2023-06-14T02:28:34;99848.47;;;14.71;57.59
24558;BME280;12726;49.148;8.582;2023-06-14T02:31:22;99860.91;;;14.67;57.83
24558;BME280;12726;49.148;8.582;2023-06-14T02:34:07;99861.91;;;14.61;57.88
24558;BME280;12726;49.148;8.582;2023-06-14T02:36:53;99873.81;;;14.60;57.72
24558;BME280;12726;49.148;8.582;2023-06-14T02:39:39;99877.09;;;14.62;57.72
24558;BME280;12726;49.148;8.582;2023-06-14T02:42:24;99872.75;;;14.61;58.01
24558;BME280;12726;49.148;8.582;2023-06-14T02:45:09;99873.81;;;14.60;59.63
24558;BME280;12726;49.148;8.582;2023-06-14T02:47:56;99877.94;;;14.63;60.58
24558;BME280;12726;49.148;8.582;2023-06-14T02:50:41;99869.22;;;14.61;60.94
24558;BME280;12726;49.148;8.582;2023-06-14T02:53:27;99878.41;;;14.60;60.61
24558;BME280;12726;49.148;8.582;2023-06-14T02:56:12;99875.25;;;14.46;60.72
24558;BME280;12726;49.148;8.582;2023-06-14T02:58:58;99886.28;;;14.39;60.75
24558;BME280;12726;49.148;8.582;2023-06-14T03:01:44;99876.66;;;14.32;60.88
24558;BME280;12726;49.148;8.582;2023-06-14T03:04:30;99879.84;;;14.29;60.92
24558;BME280;12726;49.148;8.582;2023-06-14T03:07:18;99881.72;;;14.28;60.92
24558;BME280;12726;49.148;8.582;2023-06-14T03:10:05;99880.59;;;14.24;61.26
24558;BME280;12726;49.148;8.582;2023-06-14T03:12:51;99885.72;;;14.21;61.63
24558;BME280;12726;49.148;8.582;2023-06-14T03:15:37;99879.13;;;14.17;61.56
24558;BME280;12726;49.148;8.582;2023-06-14T03:18:22;99897.34;;;14.21;61.39
24558;BME280;12726;49.148;8.582;2023-06-14T03:21:09;99888.97;;;14.23;62.41
24558;BME280;12726;49.148;8.582;2023-06-14T03:23:55;99886.63;;;14.09;64.36
24558;BME280;12726;49.148;8.582;2023-06-14T03:26:40;99896.03;;;14.07;64.07
24558;BME280;12726;49.148;8.582;2023-06-14T03:29:26;99900.09;;;14.04;63.84
24558;BME280;12726;49.148;8.582;2023-06-14T03:32:11;99905.25;;;14.06;63.60
24558;BME280;12726;49.148;8.582;2023-06-14T03:34:56;99905.16;;;14.01;63.83
24558;BME280;12726;49.148;8.582;2023-06-14T03:37:43;99899.75;;;14.01;63.72
24558;BME280;12726;49.148;8.582;2023-06-14T03:40:28;99905.44;;;13.99;64.01
24558;BME280;12726;49.148;8.582;2023-06-14T03:43:15;99911.91;;;13.98;63.71
24558;BME280;12726;49.148;8.582;2023-06-14T03:46:00;99914.59;;;13.98;63.73
24558;BME280;12726;49.148;8.582;2023-06-14T03:48:45;99916.81;;;14.01;63.50
24558;BME280;12726;49.148;8.582;2023-06-14T03:51:30;99926.31;;;14.04;63.77
24558;BME280;12726;49.148;8.582;2023-06-14T03:54:17;99933.94;;;14.07;63.66
24558;BME280;12726;49.148;8.582;2023-06-14T03:57:02;99932.06;;;14.07;63.47
24558;BME280;12726;49.148;8.582;2023-06-14T03:59:48;99933.44;;;14.10;63.41
24558;BME280;12726;49.148;8.582;2023-06-14T04:02:33;99936.91;;;14.05;64.07
24558;BME280;12726;49.148;8.582;2023-06-14T04:05:20;99937.56;;;13.96;64.67
24558;BME280;12726;49.148;8.582;2023-06-14T04:08:05;99937.97;;;13.88;65.16
24558;BME280;12726;49.148;8.582;2023-06-14T04:10:54;99947.13;;;13.87;65.77
24558;BME280;12726;49.148;8.582;2023-06-14T04:13:39;99951.34;;;13.94;65.44
24558;BME280;12726;49.148;8.582;2023-06-14T04:16:25;99944.63;;;13.97;65.73
24558;BME280;12726;49.148;8.582;2023-06-14T04:19:10;99956.56;;;14.01;65.67
24558;BME280;12726;49.148;8.582;2023-06-14T04:21:56;99965.69;;;13.95;66.49
24558;BME280;12726;49.148;8.582;2023-06-14T04:24:43;99962.66;;;13.91;66.26
24558;BME280;12726;49.148;8.582;2023-06-14T04:27:30;99955.91;;;13.94;66.33
24558;BME280;12726;49.148;8.582;2023-06-14T04:30:18;99961.44;;;13.99;66.59
24558;BME280;12726;49.148;8.582;2023-06-14T04:33:03;99969.41;;;14.05;65.97
24558;BME280;12726;49.148;8.582;2023-06-14T04:35:49;99971.44;;;14.15;65.58
24558;BME280;12726;49.148;8.582;2023-06-14T04:38:37;99973.78;;;14.28;66.00
24558;BME280;12726;49.148;8.582;2023-06-14T04:41:23;99978.13;;;14.41;66.23
24558;BME280;12726;49.148;8.582;2023-06-14T04:44:16;99978.88;;;14.58;66.14
24558;BME280;12726;49.148;8.582;2023-06-14T04:47:02;99976.16;;;14.75;65.02
24558;BME280;12726;49.148;8.582;2023-06-14T04:49:48;99981.69;;;14.85;64.44
24558;BME280;12726;49.148;8.582;2023-06-14T04:52:34;99996.53;;;14.99;63.96
24558;BME280;12726;49.148;8.582;2023-06-14T04:55:19;99995.34;;;15.12;63.81
24558;BME280;12726;49.148;8.582;2023-06-14T04:58:04;99999.56;;;15.24;63.18
24558;BME280;12726;49.148;8.582;2023-06-14T05:00:51;100002.97;;;15.37;63.15
24558;BME280;12726;49.148;8.582;2023-06-14T05:03:37;100004.41;;;15.44;63.00
24558;BME280;12726;49.148;8.582;2023-06-14T05:06:22;100001.75;;;15.49;61.40
24558;BME280;12726;49.148;8.582;2023-06-14T05:09:07;100003.53;;;15.60;60.34
24558;BME280;12726;49.148;8.582;2023-06-14T05:11:53;100000.91;;;15.71;58.88
24558;BME280;12726;49.148;8.582;2023-06-14T05:14:38;100010.00;;;15.81;58.75
24558;BME280;12726;49.148;8.582;2023-06-14T05:17:25;100008.19;;;15.92;58.21
24558;BME280;12726;49.148;8.582;2023-06-14T05:20:11;100006.41;;;16.02;56.73
24558;BME280;12726;49.148;8.582;2023-06-14T05:22:57;100003.50;;;16.14;56.39
24558;BME280;12726;49.148;8.582;2023-06-14T05:25:42;100017.75;;;16.26;55.96
24558;BME280;12726;49.148;8.582;2023-06-14T05:28:28;100015.09;;;16.36;55.85
24558;BME280;12726;49.148;8.582;2023-06-14T05:31:14;100005.69;;;16.49;55.46
24558;BME280;12726;49.148;8.582;2023-06-14T05:34:01;100019.41;;;16.64;54.94
24558;BME280;12726;49.148;8.582;2023-06-14T05:36:46;100020.59;;;16.78;55.13
24558;BME280;12726;49.148;8.582;2023-06-14T05:39:32;100014.44;;;16.93;54.96
24558;BME280;12726;49.148;8.582;2023-06-14T05:42:17;100028.69;;;17.10;54.59
24558;BME280;12726;49.148;8.582;2023-06-14T05:45:02;100026.31;;;17.29;54.94
24558;BME280;12726;49.148;8.582;2023-06-14T05:47:48;100032.94;;;17.53;54.42
24558;BME280;12726;49.148;8.582;2023-06-14T05:50:35;100030.56;;;17.72;53.15
24558;BME280;12726;49.148;8.582;2023-06-14T05:53:20;100034.41;;;17.91;52.01
24558;BME280;12726;49.148;8.582;2023-06-14T05:56:06;100038.28;;;18.11;52.12
24558;BME280;12726;49.148;8.582;2023-06-14T05:58:51;100042.66;;;18.32;51.77
24558;BME280;12726;49.148;8.582;2023-06-14T06:01:36;100041.59;;;18.58;51.21
24558;BME280;12726;49.148;8.582;2023-06-14T06:04:23;100038.28;;;18.76;50.65
24558;BME280;12726;49.148;8.582;2023-06-14T06:07:10;100038.00;;;18.88;50.34
24558;BME280;12726;49.148;8.582;2023-06-14T06:09:56;100037.97;;;19.03;50.33
24558;BME280;12726;49.148;8.582;2023-06-14T06:12:41;100035.97;;;19.19;49.87
24558;BME280;12726;49.148;8.582;2023-06-14T06:15:27;100040.53;;;19.44;49.16
24558;BME280;12726;49.148;8.582;2023-06-14T06:18:12;100041.53;;;19.68;48.35
24558;BME280;12726;49.148;8.582;2023-06-14T06:20:58;100046.59;;;19.90;47.23
24558;BME280;12726;49.148;8.582;2023-06-14T06:23:45;100041.16;;;20.29;46.85
24558;BME280;12726;49.148;8.582;2023-06-14T06:26:30;100042.81;;;20.64;44.47
24558;BME280;12726;49.148;8.582;2023-06-14T06:29:15;100046.88;;;20.95;43.08
24558;BME280;12726;49.148;8.582;2023-06-14T06:32:01;100047.13;;;21.46;41.73
24558;BME280;12726;49.148;8.582;2023-06-14T06:34:46;100046.28;;;21.70;40.49
24558;BME280;12726;49.148;8.582;2023-06-14T06:37:32;100052.00;;;21.92;40.62
24558;BME280;12726;49.148;8.582;2023-06-14T06:40:18;100052.69;;;22.21;39.63
24558;BME280;12726;49.148;8.582;2023-06-14T06:43:04;100056.66;;;22.48;39.50
24558;BME280;12726;49.148;8.582;2023-06-14T06:45:49;100047.84;;;22.83;38.24
24558;BME280;12726;49.148;8.582;2023-06-14T06:48:35;100055.63;;;23.22;37.81
24558;BME280;12726;49.148;8.582;2023-06-14T06:51:20;100058.16;;;23.19;36.89
24558;BME280;12726;49.148;8.582;2023-06-14T06:54:05;100060.50;;;23.39;36.60
24558;BME280;12726;49.148;8.582;2023-06-14T06:56:52;100066.34;;;23.51;36.75
24558;BME280;12726;49.148;8.582;2023-06-14T06:59:38;100064.44;;;23.06;37.21
24558;BME280;12726;49.148;8.582;2023-06-14T07:05:09;100072.81;;;23.28;36.49
24558;BME280;12726;49.148;8.582;2023-06-14T07:07:54;100074.38;;;23.48;36.68
24558;BME280;12726;49.148;8.582;2023-06-14T07:10:39;100077.63;;;23.63;36.15
24558;BME280;12726;49.148;8.582;2023-06-14T07:13:26;100084.03;;;23.72;36.16
24558;BME280;12726;49.148;8.582;2023-06-14T07:16:11;100085.50;;;24.06;36.09
24558;BME280;12726;49.148;8.582;2023-06-14T07:18:56;100084.56;;;24.69;35.02
24558;BME280;12726;49.148;8.582;2023-06-14T07:21:42;100088.56;;;24.63;34.46
24558;BME280;12726;49.148;8.582;2023-06-14T07:24:27;100082.09;;;25.12;34.45
24558;BME280;12726;49.148;8.582;2023-06-14T07:27:13;100087.47;;;25.56;33.60
24558;BME280;12726;49.148;8.582;2023-06-14T07:29:59;100089.34;;;25.78;33.24
24558;BME280;12726;49.148;8.582;2023-06-14T07:32:45;100101.03;;;25.92;33.28
24558;BME280;12726;49.148;8.582;2023-06-14T07:35:30;100095.19;;;25.94;32.47
24558;BME280;12726;49.148;8.582;2023-06-14T07:38:16;100090.50;;;26.03;32.21
24558;BME280;12726;49.148;8.582;2023-06-14T07:41:01;100097.84;;;26.33;32.90
24558;BME280;12726;49.148;8.582;2023-06-14T07:43:46;100092.94;;;26.73;31.48
24558;BME280;12726;49.148;8.582;2023-06-14T07:46:33;100094.28;;;26.50;31.88
24558;BME280;12726;49.148;8.582;2023-06-14T07:49:19;100092.44;;;27.06;31.28
24558;BME280;12726;49.148;8.582;2023-06-14T07:52:05;100099.97;;;27.35;31.31
24558;BME280;12726;49.148;8.582;2023-06-14T07:54:50;100094.59;;;27.29;29.99
24558;BME280;12726;49.148;8.582;2023-06-14T07:57:35;100097.03;;;27.31;30.04
24558;BME280;12726;49.148;8.582;2023-06-14T08:00:21;100098.94;;;27.48;30.34
24558;BME280;12726;49.148;8.582;2023-06-14T08:03:07;100089.50;;;27.78;30.02
24558;BME280;12726;49.148;8.582;2023-06-14T08:05:53;100089.28;;;27.92;29.23
24558;BME280;12726;49.148;8.582;2023-06-14T08:08:39;100096.06;;;27.94;29.63
24558;BME280;12726;49.148;8.582;2023-06-14T08:11:24;100089.88;;;28.27;29.14
24558;BME280;12726;49.148;8.582;2023-06-14T08:14:09;100098.59;;;28.70;28.22
24558;BME280;12726;49.148;8.582;2023-06-14T08:16:55;100097.97;;;28.86;27.61
24558;BME280;12726;49.148;8.582;2023-06-14T08:19:42;100093.38;;;28.90;27.66
24558;BME280;12726;49.148;8.582;2023-06-14T08:22:27;100101.78;;;28.93;28.26
24558;BME280;12726;49.148;8.582;2023-06-14T08:25:16;100094.38;;;28.85;28.11
24558;BME280;12726;49.148;8.582;2023-06-14T08:28:02;100101.16;;;29.08;28.73
24558;BME280;12726;49.148;8.582;2023-06-14T08:30:47;100099.41;;;29.04;28.11
24558;BME280;12726;49.148;8.582;2023-06-14T08:33:33;100094.03;;;29.19;27.56
24558;BME280;12726;49.148;8.582;2023-06-14T08:36:20;100102.69;;;28.85;28.46
24558;BME280;12726;49.148;8.582;2023-06-14T08:39:06;100101.47;;;29.07;27.59
24558;BME280;12726;49.148;8.582;2023-06-14T08:41:53;100107.75;;;29.16;26.99
24558;BME280;12726;49.148;8.582;2023-06-14T08:44:40;100114.09;;;29.16;26.81
24558;BME280;12726;49.148;8.582;2023-06-14T08:47:26;100103.72;;;28.60;26.81
24558;BME280;12726;49.148;8.582;2023-06-14T08:50:13;100098.22;;;28.72;27.63
24558;BME280;12726;49.148;8.582;2023-06-14T08:53:02;100104.13;;;29.03;27.50
24558;BME280;12726;49.148;8.582;2023-06-14T08:55:47;100113.28;;;29.16;28.17
24558;BME280;12726;49.148;8.582;2023-06-14T08:58:33;100106.78;;;28.46;28.54
24558;BME280;12726;49.148;8.582;2023-06-14T09:01:20;100106.84;;;28.79;27.14
24558;BME280;12726;49.148;8.582;2023-06-14T09:04:06;100110.16;;;29.05;27.34
24558;BME280;12726;49.148;8.582;2023-06-14T09:06:51;100111.00;;;28.85;26.93
24558;BME280;12726;49.148;8.582;2023-06-14T09:09:40;100111.81;;;28.86;27.43
24558;BME280;12726;49.148;8.582;2023-06-14T09:12:26;100114.56;;;29.18;27.02
24558;BME280;12726;49.148;8.582;2023-06-14T09:15:11;100105.34;;;29.27;26.35
24558;BME280;12726;49.148;8.582;2023-06-14T09:18:00;100105.72;;;28.92;26.66
24558;BME280;12726;49.148;8.582;2023-06-14T09:20:46;100102.00;;;28.55;26.20
24558;BME280;12726;49.148;8.582;2023-06-14T09:23:33;100096.34;;;28.64;27.54
24558;BME280;12726;49.148;8.582;2023-06-14T09:26:22;100106.38;;;29.22;26.46
24558;BME280;12726;49.148;8.582;2023-06-14T09:29:09;100099.03;;;28.93;26.34
24558;BME280;12726;49.148;8.582;2023-06-14T09:31:54;100102.28;;;28.74;26.50
24558;BME280;12726;49.148;8.582;2023-06-14T09:34:40;100103.97;;;28.88;27.28
24558;BME280;12726;49.148;8.582;2023-06-14T09:37:28;100104.91;;;29.37;26.76
24558;BME280;12726;49.148;8.582;2023-06-14T09:40:20;100101.38;;;29.15;26.61
24558;BME280;12726;49.148;8.582;2023-06-14T09:43:07;100096.63;;;29.61;26.57
24558;BME280;12726;49.148;8.582;2023-06-14T09:45:54;100110.84;;;29.02;25.36
24558;BME280;12726;49.148;8.582;2023-06-14T09:48:39;100118.19;;;28.65;25.29
24558;BME280;12726;49.148;8.582;2023-06-14T09:51:27;100104.44;;;29.35;25.51
24558;BME280;12726;49.148;8.582;2023-06-14T09:54:16;100118.56;;;29.78;24.47
24558;BME280;12726;49.148;8.582;2023-06-14T09:57:02;100107.13;;;29.68;25.35
24558;BME280;12726;49.148;8.582;2023-06-14T09:59:57;100103.88;;;29.78;24.41
24558;BME280;12726;49.148;8.582;2023-06-14T10:02:45;100100.38;;;30.17;24.49
24558;BME280;12726;49.148;8.582;2023-06-14T10:05:36;100107.88;;;30.29;24.38
24558;BME280;12726;49.148;8.582;2023-06-14T10:08:24;100094.66;;;29.98;24.76
24558;BME280;12726;49.148;8.582;2023-06-14T10:11:11;100104.22;;;29.52;24.92
24558;BME280;12726;49.148;8.582;2023-06-14T10:13:58;100105.03;;;29.65;25.37
24558;BME280;12726;49.148;8.582;2023-06-14T10:16:50;100101.28;;;30.21;24.41
24558;BME280;12726;49.148;8.582;2023-06-14T10:19:44;100106.88;;;30.49;23.68
24558;BME280;12726;49.148;8.582;2023-06-14T10:22:35;100098.56;;;30.77;23.76
24558;BME280;12726;49.148;8.582;2023-06-14T10:25:28;100098.50;;;30.21;23.94
24558;BME280;12726;49.148;8.582;2023-06-14T10:28:16;100092.53;;;29.71;24.55
24558;BME280;12726;49.148;8.582;2023-06-14T10:31:03;100101.69;;;29.59;24.74
24558;BME280;12726;49.148;8.582;2023-06-14T10:33:55;100095.59;;;29.08;26.17
24558;BME280;12726;49.148;8.582;2023-06-14T10:36:42;100095.50;;;29.17;25.81
24558;BME280;12726;49.148;8.582;2023-06-14T10:39:27;100083.59;;;30.14;25.59
24558;BME280;12726;49.148;8.582;2023-06-14T10:42:13;100083.56;;;29.62;25.33
24558;BME280;12726;49.148;8.582;2023-06-14T10:45:00;100079.47;;;29.35;25.39
24558;BME280;12726;49.148;8.582;2023-06-14T10:47:49;100088.53;;;29.68;25.43
24558;BME280;12726;49.148;8.582;2023-06-14T10:50:41;100085.09;;;30.23;24.82
24558;BME280;12726;49.148;8.582;2023-06-14T10:53:28;100077.09;;;30.90;23.96
24558;BME280;12726;49.148;8.582;2023-06-14T10:56:23;100074.56;;;31.00;24.57
24558;BME280;12726;49.148;8.582;2023-06-14T10:59:10;100086.03;;;30.99;24.06
24558;BME280;12726;49.148;8.582;2023-06-14T11:01:58;100083.63;;;29.77;25.15
24558;BME280;12726;49.148;8.582;2023-06-14T11:04:51;100078.47;;;28.94;25.67
24558;BME280;12726;49.148;8.582;2023-06-14T11:07:46;100081.50;;;29.01;26.33
24558;BME280;12726;49.148;8.582;2023-06-14T11:10:36;100073.38;;;29.66;25.66
24558;BME280;12726;49.148;8.582;2023-06-14T11:13:24;100081.47;;;29.95;26.26
24558;BME280;12726;49.148;8.582;2023-06-14T11:16:11;100080.31;;;29.84;25.75
24558;BME280;12726;49.148;8.582;2023-06-14T11:18:57;100086.44;;;29.53;26.22
24558;BME280;12726;49.148;8.582;2023-06-14T11:21:42;100088.91;;;29.21;25.22
24558;BME280;12726;49.148;8.582;2023-06-14T11:24:28;100075.25;;;28.71;25.87
24558;BME280;12726;49.148;8.582;2023-06-14T11:27:14;100071.69;;;28.38;25.67
24558;BME280;12726;49.148;8.582;2023-06-14T11:29:59;100065.09;;;28.01;27.20
24558;BME280;12726;49.148;8.582;2023-06-14T11:32:46;100071.06;;;27.91;27.50
24558;BME280;12726;49.148;8.582;2023-06-14T11:35:34;100072.53;;;27.59;27.86
24558;BME280;12726;49.148;8.582;2023-06-14T11:38:19;100068.84;;;27.55;27.63
24558;BME280;12726;49.148;8.582;2023-06-14T11:41:06;100075.22;;;27.38;28.40
24558;BME280;12726;49.148;8.582;2023-06-14T11:43:52;100074.72;;;27.07;28.96
24558;BME280;12726;49.148;8.582;2023-06-14T11:46:38;100075.00;;;28.64;26.77
24558;BME280;12726;49.148;8.582;2023-06-14T11:49:23;100076.84;;;29.38;26.41
24558;BME280;12726;49.148;8.582;2023-06-14T11:52:09;100078.69;;;28.89;26.15
24558;BME280;12726;49.148;8.582;2023-06-14T11:54:56;100068.78;;;28.34;26.94
24558;BME280;12726;49.148;8.582;2023-06-14T11:57:43;100071.38;;;28.19;26.55
24558;BME280;12726;49.148;8.582;2023-06-14T12:00:29;100063.63;;;28.03;26.92
24558;BME280;12726;49.148;8.582;2023-06-14T12:03:14;100058.94;;;27.75;26.96
24558;BME280;12726;49.148;8.582;2023-06-14T12:06:07;100067.97;;;28.88;26.54
24558;BME280;12726;49.148;8.582;2023-06-14T12:08:55;100063.44;;;28.83;26.24
24558;BME280;12726;49.148;8.582;2023-06-14T12:11:41;100060.03;;;28.98;25.61
24558;BME280;12726;49.148;8.582;2023-06-14T12:14:29;100066.84;;;28.68;24.97
24558;BME280;12726;49.148;8.582;2023-06-14T12:17:16;100066.06;;;27.84;26.23
24558;BME280;12726;49.148;8.582;2023-06-14T12:20:05;100063.09;;;27.60;26.99
24558;BME280;12726;49.148;8.582;2023-06-14T12:22:56;100056.38;;;27.32;26.89
24558;BME280;12726;49.148;8.582;2023-06-14T12:25:41;100062.75;;;27.23;27.28
24558;BME280;12726;49.148;8.582;2023-06-14T12:28:31;100064.03;;;26.71;27.96
24558;BME280;12726;49.148;8.582;2023-06-14T12:31:17;100059.16;;;26.68;27.89
24558;BME280;12726;49.148;8.582;2023-06-14T12:34:03;100058.06;;;26.51;28.65
24558;BME280;12726;49.148;8.582;2023-06-14T12:36:49;100060.84;;;26.43;28.43
24558;BME280;12726;49.148;8.582;2023-06-14T12:39:35;100065.72;;;26.29;28.66
24558;BME280;12726;49.148;8.582;2023-06-14T12:42:23;100060.31;;;26.24;28.75
24558;BME280;12726;49.148;8.582;2023-06-14T12:45:10;100066.38;;;27.15;28.60
24558;BME280;12726;49.148;8.582;2023-06-14T12:47:57;100053.09;;;27.00;28.08
24558;BME280;12726;49.148;8.582;2023-06-14T12:50:42;100053.25;;;26.86;27.40
24558;BME280;12726;49.148;8.582;2023-06-14T12:53:28;100059.81;;;27.28;27.33
24558;BME280;12726;49.148;8.582;2023-06-14T12:56:13;100070.78;;;27.84;26.49
24558;BME280;12726;49.148;8.582;2023-06-14T12:58:59;100062.09;;;28.15;25.62
24558;BME280;12726;49.148;8.582;2023-06-14T13:01:45;100062.28;;;28.30;25.45
24558;BME280;12726;49.148;8.582;2023-06-14T13:04:35;100066.59;;;27.98;25.23
24558;BME280;12726;49.148;8.582;2023-06-14T13:07:20;100066.69;;;28.31;24.84
24558;BME280;12726;49.148;8.582;2023-06-14T13:10:06;100066.81;;;28.56;24.85
24558;BME280;12726;49.148;8.582;2023-06-14T13:12:51;100069.22;;;28.57;24.62
24558;BME280;12726;49.148;8.582;2023-06-14T13:15:36;100069.19;;;28.24;24.79
24558;BME280;12726;49.148;8.582;2023-06-14T13:18:22;100068.41;;;27.94;25.49
24558;BME280;12726;49.148;8.582;2023-06-14T13:21:08;100070.91;;;28.50;24.29
24558;BME280;12726;49.148;8.582;2023-06-14T13:23:54;100069.53;;;28.23;24.49
24558;BME280;12726;49.148;8.582;2023-06-14T13:26:39;100073.03;;;28.65;24.79
24558;BME280;12726;49.148;8.582;2023-06-14T13:29:25;100063.22;;;28.55;24.48
24558;BME280;12726;49.148;8.582;2023-06-14T13:32:11;100072.00;;;28.36;24.60
24558;BME280;12726;49.148;8.582;2023-06-14T13:34:57;100068.84;;;28.05;24.69
24558;BME280;12726;49.148;8.582;2023-06-14T13:37:44;100071.59;;;27.46;25.45
24558;BME280;12726;49.148;8.582;2023-06-14T13:40:29;100074.81;;;27.19;25.43
24558;BME280;12726;49.148;8.582;2023-06-14T13:43:14;100065.22;;;27.16;25.35
24558;BME280;12726;49.148;8.582;2023-06-14T13:46:00;100057.84;;;27.29;25.44
24558;BME280;12726;49.148;8.582;2023-06-14T13:48:45;100064.59;;;27.11;26.06
24558;BME280;12726;49.148;8.582;2023-06-14T13:51:31;100069.22;;;26.72;26.16
24558;BME280;12726;49.148;8.582;2023-06-14T13:54:20;100072.53;;;26.57;26.55
24558;BME280;12726;49.148;8.582;2023-06-14T13:57:06;100059.59;;;26.87;26.24
24558;BME280;12726;49.148;8.582;2023-06-14T13:59:51;100059.19;;;27.23;26.72
24558;BME280;12726;49.148;8.582;2023-06-14T14:02:39;100062.22;;;27.39;26.30
24558;BME280;12726;49.148;8.582;2023-06-14T14:05:25;100061.81;;;27.19;26.53
24558;BME280;12726;49.148;8.582;2023-06-14T14:08:13;100055.50;;;27.48;26.32
24558;BME280;12726;49.148;8.582;2023-06-14T14:11:00;100054.25;;;27.37;26.03
24558;BME280;12726;49.148;8.582;2023-06-14T14:13:48;100056.53;;;27.35;25.94
24558;BME280;12726;49.148;8.582;2023-06-14T14:16:35;100057.44;;;27.48;26.40
24558;BME280;12726;49.148;8.582;2023-06-14T14:19:21;100049.78;;;27.15;26.08
24558;BME280;12726;49.148;8.582;2023-06-14T14:22:07;100043.38;;;26.85;26.17
24558;BME280;12726;49.148;8.582;2023-06-14T14:24:52;100056.19;;;26.99;26.86
24558;BME280;12726;49.148;8.582;2023-06-14T14:27:39;100054.28;;;27.28;25.97
24558;BME280;12726;49.148;8.582;2023-06-14T14:30:24;100057.19;;;27.32;25.89
24558;BME280;12726;49.148;8.582;2023-06-14T14:33:09;100057.50;;;27.39;26.32
24558;BME280;12726;49.148;8.582;2023-06-14T14:35:59;100052.03;;;27.22;26.78